createdAt,value
2022-08-19T00:04:42.186Z,51.13
2022-08-19T00:09:43.726Z,52.30
2022-08-19T00:14:45.256Z,53.13
2022-08-19T00:19:46.821Z,52.12
2022-08-19T00:24:50.912Z,52.27
2022-08-19T00:29:52.965Z,51.58
2022-08-19T00:34:54.582Z,51.58
2022-08-19T00:39:56.916Z,51.46
2022-08-19T00:44:58.668Z,51.82
2022-08-19T00:50:00.269Z,51.14
2022-08-19T00:55:01.977Z,50.74
2022-08-19T01:00:06.235Z,51.23
2022-08-19T01:05:09.568Z,51.40
2022-08-19T01:10:13.560Z,51.61
2022-08-19T01:15:17.413Z,51.09
2022-08-19T01:20:22.175Z,51.81
2022-08-19T01:25:36.659Z,51.16
2022-08-19T01:30:44.204Z,51.95
2022-08-19T01:35:46.071Z,51.96
2022-08-19T01:40:47.663Z,51.65
2022-08-19T01:45:50.046Z,51.68
2022-08-19T01:50:52.497Z,51.99
2022-08-19T01:55:54.014Z,51.16
2022-08-19T02:00:55.535Z,52.17
2022-08-19T02:05:58.518Z,51.80
2022-08-19T02:11:00.045Z,51.90
2022-08-19T02:16:01.555Z,52.31
2022-08-19T02:21:05.936Z,51.33
2022-08-19T02:26:07.448Z,51.74
2022-08-19T02:31:16.419Z,51.67
2022-08-19T02:36:21.087Z,51.66
2022-08-19T02:41:26.858Z,52.13
2022-08-19T02:46:30.737Z,50.63
2022-08-19T02:51:34.442Z,51.83
2022-08-19T02:56:36.933Z,51.97
2022-08-19T03:01:40.609Z,51.93
2022-08-19T03:06:44.233Z,52.09
2022-08-19T03:11:46.328Z,51.77
2022-08-19T03:16:51.395Z,51.85
2022-08-19T03:21:52.943Z,52.06
2022-08-19T03:26:58.676Z,51.97
2022-08-19T03:32:01.896Z,51.11
2022-08-19T03:37:08.274Z,52.03
2022-08-19T03:42:38.643Z,51.68
2022-08-19T03:47:33.291Z,52.49
2022-08-19T03:52:34.813Z,52.20
2022-08-19T03:57:36.324Z,51.93
2022-08-19T04:02:37.832Z,52.53
2022-08-19T04:07:39.349Z,53.96
2022-08-19T04:12:40.858Z,55.13
2022-08-19T04:17:42.380Z,54.10
2022-08-19T04:22:43.904Z,53.66
2022-08-19T04:27:47.300Z,52.42
2022-08-19T04:32:48.869Z,53.07
2022-08-19T04:37:50.410Z,53.44
2022-08-19T04:42:52.193Z,54.72
2022-08-19T04:48:19.542Z,53.66
2022-08-19T04:53:18.608Z,53.25
2022-08-19T04:58:20.136Z,53.51
2022-08-19T05:03:21.718Z,53.25
2022-08-19T05:08:31.513Z,53.50
2022-08-19T05:13:33.675Z,54.27
2022-08-19T05:18:53.478Z,53.69
2022-08-19T05:23:54.997Z,54.11
2022-08-19T05:28:56.533Z,55.03
2022-08-19T05:33:59.459Z,54.59
2022-08-19T05:39:00.970Z,54.55
2022-08-19T05:44:06.814Z,54.32
2022-08-19T05:49:08.449Z,54.22
2022-08-19T05:54:09.961Z,54.59
2022-08-19T05:59:12.273Z,53.93
2022-08-19T06:04:14.611Z,53.28
2022-08-19T06:09:16.122Z,53.96
2022-08-19T06:14:19.460Z,53.07
2022-08-19T06:19:30.787Z,53.79
2022-08-19T06:24:32.747Z,53.17
2022-08-19T06:29:34.888Z,53.43
2022-08-19T06:34:36.409Z,53.24
2022-08-19T06:39:39.504Z,53.18
2022-08-19T06:44:43.365Z,53.05
2022-08-19T06:49:45.139Z,52.53
2022-08-19T06:54:56.427Z,51.96
2022-08-19T06:59:58.307Z,51.86
2022-08-19T07:05:02.286Z,51.73
2022-08-19T07:10:06.179Z,51.14
2022-08-19T07:15:10.827Z,50.68
2022-08-19T07:20:12.614Z,49.91
2022-08-19T07:25:14.257Z,50.36
2022-08-19T07:30:15.781Z,50.19
2022-08-19T07:35:20.316Z,49.40
2022-08-19T07:40:21.914Z,49.18
2022-08-19T07:45:23.428Z,49.63
2022-08-19T07:50:24.937Z,48.79
2022-08-19T07:55:41.763Z,49.55
2022-08-19T08:00:45.701Z,49.32
2022-08-19T08:06:06.003Z,48.78
2022-08-19T08:11:07.680Z,49.62
2022-08-19T08:16:10.237Z,48.89
2022-08-19T08:21:15.573Z,48.05
2022-08-19T08:26:19.358Z,47.18
2022-08-19T08:31:21.096Z,47.93
2022-08-19T08:36:22.611Z,47.00
2022-08-19T08:41:45.757Z,47.61
2022-08-19T08:46:49.545Z,47.48
2022-08-19T08:52:04.230Z,46.16
2022-08-19T08:57:13.792Z,46.57
2022-08-19T09:02:15.307Z,47.01
2022-08-19T09:07:48.448Z,47.37
2022-08-19T09:12:58.836Z,46.06
2022-08-19T09:18:02.702Z,46.39
2022-08-19T09:23:04.429Z,46.18
2022-08-19T09:28:22.075Z,45.80
2022-08-19T09:33:30.116Z,44.85
2022-08-19T09:38:31.822Z,44.80
2022-08-19T09:43:44.481Z,45.18
2022-08-19T09:48:49.803Z,45.26
2022-08-19T09:53:51.769Z,45.50
2022-08-19T09:58:54.512Z,45.61
2022-08-19T10:03:57.258Z,44.79
2022-08-19T10:08:58.903Z,44.35
2022-08-19T10:14:01.462Z,44.65
2022-08-19T10:19:03.803Z,43.25
2022-08-19T10:24:09.361Z,43.52
2022-08-19T10:29:12.643Z,42.72
2022-08-19T10:34:26.845Z,43.22
2022-08-19T10:39:42.461Z,44.35
2022-08-19T10:44:45.096Z,43.20
2022-08-19T10:50:05.003Z,43.23
2022-08-19T10:55:25.205Z,43.17
2022-08-19T11:00:32.429Z,43.13
2022-08-19T11:05:36.462Z,42.85
2022-08-19T11:10:46.093Z,42.29
2022-08-19T11:16:06.731Z,41.77
2022-08-19T11:21:19.953Z,41.31
2022-08-19T11:26:21.873Z,41.77
2022-08-19T11:31:28.910Z,41.29
2022-08-19T11:36:30.890Z,41.71
2022-08-19T11:41:32.424Z,41.29
2022-08-19T11:46:34.242Z,41.16
2022-08-19T11:51:35.764Z,41.35
2022-08-19T11:56:38.246Z,40.70
2022-08-19T12:01:41.823Z,39.23
2022-08-19T12:06:43.410Z,39.95
2022-08-19T12:11:45.012Z,40.10
2022-08-19T12:16:49.079Z,39.81
2022-08-19T12:21:56.368Z,39.01
2022-08-19T12:27:00.934Z,40.88
2022-08-19T12:32:05.184Z,40.67
2022-08-19T12:37:06.745Z,39.96
2022-08-19T12:42:09.434Z,39.57
2022-08-19T12:47:12.527Z,39.39
2022-08-19T12:52:16.943Z,39.24
2022-08-19T12:57:32.638Z,40.32
2022-08-19T13:02:38.885Z,39.62
2022-08-19T13:07:41.103Z,38.81
2022-08-19T13:12:43.502Z,39.47
2022-08-19T13:17:45.067Z,39.06
2022-08-19T13:22:47.388Z,38.99
2022-08-19T13:27:49.295Z,39.56
2022-08-19T13:33:09.459Z,40.17
2022-08-19T13:38:11.907Z,40.29
2022-08-19T13:43:22.974Z,39.93
2022-08-19T13:48:27.171Z,39.12
2022-08-19T13:53:28.690Z,39.71
2022-08-19T13:58:30.458Z,40.18
2022-08-19T14:03:32.671Z,39.79
2022-08-19T14:08:34.214Z,39.05
2022-08-19T14:13:35.800Z,39.49
2022-08-19T14:18:37.525Z,40.40
2022-08-19T14:23:39.064Z,40.12
2022-08-19T14:28:42.663Z,40.37
2022-08-19T14:33:44.194Z,41.25
2022-08-19T14:38:45.734Z,40.90
2022-08-19T14:43:48.282Z,41.22
2022-08-19T14:48:51.635Z,41.50
2022-08-19T14:53:54.250Z,41.61
2022-08-19T14:58:55.966Z,41.66
2022-08-19T15:03:57.527Z,40.42
2022-08-19T15:09:04.090Z,41.01
2022-08-19T15:14:06.403Z,41.41
2022-08-19T15:19:07.955Z,41.73
2022-08-19T15:24:10.141Z,42.72
2022-08-19T15:29:15.385Z,43.09
2022-08-19T15:34:17.818Z,43.21
2022-08-19T15:39:19.803Z,43.33
2022-08-19T15:44:22.200Z,45.21
2022-08-19T15:49:23.720Z,44.28
2022-08-19T15:54:25.332Z,43.92
2022-08-19T15:59:47.404Z,43.14
2022-08-19T16:05:07.577Z,43.34
2022-08-19T16:10:26.093Z,43.39
2022-08-19T16:15:30.496Z,43.41
2022-08-19T16:20:32.045Z,42.82
2022-08-19T16:25:34.771Z,43.41
2022-08-19T16:30:39.831Z,43.55
2022-08-19T16:35:41.340Z,43.66
2022-08-19T16:40:46.693Z,44.53
2022-08-19T16:45:53.044Z,44.30
2022-08-19T16:50:54.554Z,43.82
2022-08-19T16:55:57.438Z,44.29
2022-08-19T17:01:03.758Z,44.25
2022-08-19T17:06:28.693Z,44.70
2022-08-19T17:11:31.152Z,45.24
2022-08-19T17:16:34.811Z,45.42
2022-08-19T17:21:37.575Z,45.39
2022-08-19T17:26:39.162Z,45.27
2022-08-19T17:31:40.719Z,45.93
2022-08-19T17:36:42.265Z,46.41
2022-08-19T17:41:44.190Z,46.56
2022-08-19T17:46:46.681Z,46.46
2022-08-19T17:51:49.490Z,46.86
2022-08-19T17:56:51.015Z,46.89
2022-08-19T18:01:54.470Z,46.92
2022-08-19T18:06:56.221Z,46.30
2022-08-19T18:11:57.836Z,45.88
2022-08-19T18:16:59.443Z,46.26
2022-08-19T18:22:00.996Z,47.19
2022-08-19T18:27:02.366Z,47.42
2022-08-19T18:32:04.176Z,47.60
2022-08-19T18:37:05.696Z,47.70
2022-08-19T18:42:25.619Z,48.94
2022-08-19T18:47:45.703Z,49.18
2022-08-19T18:52:47.548Z,51.25
2022-08-19T18:57:50.689Z,50.68
2022-08-19T19:02:54.624Z,51.11
2022-08-19T19:07:56.265Z,50.60
2022-08-19T19:12:57.903Z,49.06
2022-08-19T19:17:59.461Z,49.85
2022-08-19T19:23:02.406Z,49.49
2022-08-19T19:28:03.928Z,51.25
2022-08-19T19:33:05.863Z,50.87
2022-08-19T19:38:07.383Z,51.46
2022-08-19T19:43:08.943Z,53.04
2022-08-19T19:48:12.981Z,52.38
2022-08-19T19:53:17.247Z,53.65
2022-08-19T19:58:18.803Z,53.47
2022-08-19T20:03:24.550Z,54.05
2022-08-19T20:08:45.844Z,54.62
2022-08-19T20:13:47.354Z,55.31
2022-08-19T20:18:48.946Z,55.07
2022-08-19T20:24:09.216Z,56.79
2022-08-19T20:29:13.391Z,56.31
2022-08-19T20:34:22.703Z,56.58
2022-08-19T20:39:24.086Z,56.79
2022-08-19T20:44:25.761Z,56.91
2022-08-19T20:49:27.768Z,55.36
2022-08-19T20:54:29.852Z,56.61
2022-08-19T20:59:31.419Z,57.03
2022-08-19T21:04:33.059Z,56.75
2022-08-19T21:09:35.876Z,55.99
2022-08-19T21:14:41.034Z,56.02
2022-08-19T21:19:42.627Z,57.88
2022-08-19T21:24:44.155Z,58.44
2022-08-19T21:29:45.711Z,57.67
2022-08-19T21:34:48.139Z,58.05
2022-08-19T21:39:49.766Z,57.66
2022-08-19T21:44:51.460Z,57.79
2022-08-19T21:49:52.984Z,57.90
2022-08-19T21:54:55.971Z,57.65
2022-08-19T21:59:57.519Z,57.47
2022-08-19T22:04:59.036Z,58.07
2022-08-19T22:10:00.548Z,57.58
2022-08-19T22:15:02.319Z,58.01
2022-08-19T22:20:05.646Z,57.62
2022-08-19T22:25:29.988Z,57.04
2022-08-19T22:30:34.078Z,57.59
2022-08-19T22:35:37.770Z,58.85
2022-08-19T22:40:41.274Z,58.25
2022-08-19T22:45:43.245Z,58.00
2022-08-19T22:51:05.396Z,57.54
2022-08-19T22:56:09.931Z,58.08
2022-08-19T23:01:27.539Z,58.11
2022-08-19T23:06:33.550Z,58.57
2022-08-19T23:11:41.591Z,59.45
2022-08-19T23:16:50.507Z,60.02
2022-08-19T23:21:52.733Z,58.61
2022-08-19T23:27:12.867Z,59.27
2022-08-19T23:32:16.129Z,59.12
2022-08-19T23:37:17.829Z,58.90
2022-08-19T23:42:20.491Z,58.73
2022-08-19T23:47:22.058Z,58.70
2022-08-19T23:52:23.677Z,58.33
2022-08-19T23:57:25.197Z,59.09
